createdAt,value
2019-02-23T00:00:01.062Z,-1.63
2019-02-23T00:01:10.260Z,-1.72
2019-02-23T00:02:20.220Z,-1.71
2019-02-23T00:03:30.146Z,-1.75
2019-02-23T00:04:39.826Z,-1.74
2019-02-23T00:05:49.769Z,-1.69
2019-02-23T00:06:59.490Z,-1.74
2019-02-23T00:08:09.174Z,-1.74
2019-02-23T00:09:19.120Z,-1.63
2019-02-23T00:10:28.805Z,-1.69
2019-02-23T00:11:38.753Z,-1.74
2019-02-23T00:12:48.490Z,-1.71
2019-02-23T00:13:58.441Z,-1.69
2019-02-23T00:15:08.126Z,-1.6
2019-02-23T00:16:18.065Z,-1.64
2019-02-23T00:17:27.999Z,-1.63
2019-02-23T00:18:37.950Z,-1.72
2019-02-23T00:19:47.873Z,-1.61
2019-02-23T00:20:57.824Z,-1.69
2019-02-23T00:22:07.765Z,-1.69
2019-02-23T00:23:17.694Z,-1.76
2019-02-23T00:24:27.380Z,-1.66
2019-02-23T00:25:37.074Z,-1.74
2019-02-23T00:26:47.006Z,-1.72
2019-02-23T00:27:56.943Z,-1.71
2019-02-23T00:29:06.876Z,-1.66
2019-02-23T00:30:16.810Z,-1.72
2019-02-23T00:31:26.797Z,-1.58
2019-02-23T00:32:36.732Z,-1.57
2019-02-23T00:33:46.669Z,-1.54
2019-02-23T00:34:56.609Z,-1.53
2019-02-23T00:36:06.553Z,-1.56
2019-02-23T00:37:15.993Z,-1.5
2019-02-23T00:38:25.945Z,-1.54
2019-02-23T00:39:35.892Z,-1.54
2019-02-23T00:40:45.600Z,-1.54
2019-02-23T00:41:55.266Z,-1.5
2019-02-23T00:43:04.948Z,-1.54
2019-02-23T00:44:14.889Z,-1.57
2019-02-23T00:45:24.579Z,-1.53
2019-02-23T00:46:34.509Z,-1.58
2019-02-23T00:47:44.430Z,-1.61
2019-02-23T00:48:54.124Z,-1.58
2019-02-23T00:50:03.815Z,-1.64
2019-02-23T00:51:13.340Z,-1.63
2019-02-23T00:52:23.286Z,-1.63
2019-02-23T00:53:32.717Z,-1.63
2019-02-23T00:54:42.404Z,-1.74
2019-02-23T00:55:52.330Z,-1.71
2019-02-23T00:57:02.019Z,-1.58
2019-02-23T00:58:11.701Z,-1.54
2019-02-23T00:59:21.639Z,-1.57
2019-02-23T01:00:31.331Z,-1.58
2019-02-23T01:01:41.285Z,-1.54
2019-02-23T01:02:51.220Z,-1.6
2019-02-23T01:04:00.948Z,-1.51
2019-02-23T01:05:10.871Z,-1.46
2019-02-23T01:06:20.804Z,-1.46
2019-02-23T01:07:30.492Z,-1.45
2019-02-23T01:08:40.165Z,-1.45
2019-02-23T01:09:50.097Z,-1.43
2019-02-23T01:11:03.153Z,-1.56
2019-02-23T01:12:12.828Z,-1.53
2019-02-23T01:13:22.533Z,-1.46
2019-02-23T01:14:32.497Z,-1.46
2019-02-23T01:15:42.190Z,-1.4
2019-02-23T01:16:52.119Z,-1.39
2019-02-23T01:18:02.073Z,-1.45
2019-02-23T01:19:12.234Z,-1.5
2019-02-23T01:20:22.174Z,-1.45
2019-02-23T01:21:32.113Z,-1.54
2019-02-23T01:22:42.056Z,-1.5
2019-02-23T01:23:51.987Z,-1.5
2019-02-23T01:25:01.908Z,-1.57
2019-02-23T01:26:11.329Z,-1.56
2019-02-23T01:27:21.007Z,-1.54
2019-02-23T01:28:30.683Z,-1.54
2019-02-23T01:29:40.394Z,-1.53
2019-02-23T01:30:49.829Z,-1.61
2019-02-23T01:31:59.767Z,-1.6
2019-02-23T01:33:09.187Z,-1.56
2019-02-23T01:34:19.353Z,-1.57
2019-02-23T01:35:29.042Z,-1.6
2019-02-23T01:36:38.979Z,-1.58
2019-02-23T01:37:48.920Z,-1.66
2019-02-23T01:38:58.591Z,-1.56
2019-02-23T01:40:08.292Z,-1.53
2019-02-23T01:41:18.243Z,-1.58
2019-02-23T01:42:28.175Z,-1.56
2019-02-23T01:43:37.865Z,-1.6
2019-02-23T01:44:47.785Z,-1.58
2019-02-23T01:45:57.712Z,-1.6
2019-02-23T01:47:07.416Z,-1.57
2019-02-23T01:48:17.343Z,-1.61
2019-02-23T01:49:27.274Z,-1.63
2019-02-23T01:50:37.209Z,-1.6
2019-02-23T01:51:46.901Z,-1.64
2019-02-23T01:52:56.838Z,-1.63
2019-02-23T01:54:06.535Z,-1.75
2019-02-23T01:55:16.467Z,-1.69
2019-02-23T01:56:26.228Z,-1.72
2019-02-23T01:57:36.183Z,-1.69
2019-02-23T01:58:45.876Z,-1.71
2019-02-23T01:59:55.824Z,-1.84
2019-02-23T02:01:05.503Z,-1.76
2019-02-23T02:02:15.201Z,-1.89
2019-02-23T02:03:25.139Z,-1.9
2019-02-23T02:04:35.162Z,-1.92
2019-02-23T02:05:44.594Z,-1.9
2019-02-23T02:06:54.523Z,-1.96
2019-02-23T02:08:04.459Z,-1.99
2019-02-23T02:09:14.137Z,-1.99
2019-02-23T02:10:24.079Z,-1.96
2019-02-23T02:11:33.755Z,-2.04
2019-02-23T02:12:43.687Z,-1.97
2019-02-23T02:13:53.636Z,-2.05
2019-02-23T02:15:03.330Z,-1.97
2019-02-23T02:16:13.043Z,-2.1
2019-02-23T02:17:22.972Z,-2.02
2019-02-23T02:18:32.401Z,-2.07
2019-02-23T02:19:42.342Z,-2
2019-02-23T02:20:52.011Z,-2.1
2019-02-23T02:22:01.693Z,-2.15
2019-02-23T02:23:11.621Z,-2.14
2019-02-23T02:24:21.301Z,-2.15
2019-02-23T02:25:30.733Z,-2.15
2019-02-23T02:26:40.679Z,-2.15
2019-02-23T02:27:50.615Z,-2.17
2019-02-23T02:29:00.055Z,-2.18
2019-02-23T02:30:10.052Z,-2.25
2019-02-23T02:31:19.888Z,-2.28
2019-02-23T02:32:29.584Z,-2.26
2019-02-23T02:33:39.281Z,-2.26
2019-02-23T02:34:48.965Z,-2.28
2019-02-23T02:35:58.399Z,-2.33
2019-02-23T02:37:08.343Z,-2.28
2019-02-23T02:38:18.293Z,-2.23
2019-02-23T02:39:28.248Z,-2.29
2019-02-23T02:40:37.701Z,-2.34
2019-02-23T02:41:47.649Z,-2.36
2019-02-23T02:42:57.346Z,-2.37
2019-02-23T02:44:07.077Z,-2.36
2019-02-23T02:45:17.024Z,-2.39
2019-02-23T02:46:26.943Z,-2.5
2019-02-23T02:47:36.380Z,-2.4
2019-02-23T02:48:46.317Z,-2.37
2019-02-23T02:49:56.009Z,-2.5
2019-02-23T02:51:05.959Z,-2.54
2019-02-23T02:52:15.889Z,-2.48
2019-02-23T02:53:25.321Z,-2.55
2019-02-23T02:54:35.249Z,-2.42
2019-02-23T02:55:44.939Z,-2.42
2019-02-23T02:56:54.891Z,-2.55
2019-02-23T02:58:04.827Z,-2.47
2019-02-23T02:59:14.797Z,-2.48
2019-02-23T03:00:24.530Z,-2.48
2019-02-23T03:01:34.071Z,-2.5
2019-02-23T03:02:43.753Z,-2.48
2019-02-23T03:03:53.433Z,-2.57
2019-02-23T03:05:03.366Z,-2.51
2019-02-23T03:06:13.061Z,-2.63
2019-02-23T03:07:22.993Z,-2.52
2019-02-23T03:08:32.920Z,-2.57
2019-02-23T03:09:42.942Z,-2.48
2019-02-23T03:10:52.887Z,-2.62
2019-02-23T03:12:02.848Z,-2.62
2019-02-23T03:13:12.793Z,-2.58
2019-02-23T03:14:22.721Z,-2.55
2019-02-23T03:15:32.919Z,-2.65
2019-02-23T03:16:42.355Z,-2.58
2019-02-23T03:17:52.063Z,-2.63
2019-02-23T03:19:01.744Z,-2.68
2019-02-23T03:20:11.431Z,-2.65
2019-02-23T03:21:21.388Z,-2.73
2019-02-23T03:22:31.081Z,-2.73
2019-02-23T03:23:41.033Z,-2.62
2019-02-23T03:24:50.765Z,-2.72
2019-02-23T03:26:00.874Z,-2.73
2019-02-23T03:27:10.810Z,-2.76
2019-02-23T03:28:20.770Z,-2.81
2019-02-23T03:29:29.976Z,-2.78
2019-02-23T03:30:39.677Z,-2.81
2019-02-23T03:31:49.373Z,-2.78
2019-02-23T03:32:59.335Z,-2.83
2019-02-23T03:34:09.191Z,-2.81
2019-02-23T03:35:18.881Z,-2.76
2019-02-23T03:36:28.835Z,-2.76
2019-02-23T03:37:38.765Z,-2.78
2019-02-23T03:38:48.724Z,-2.83
2019-02-23T03:39:58.155Z,-2.81
2019-02-23T03:41:08.108Z,-2.83
2019-02-23T03:42:17.647Z,-2.89
2019-02-23T03:43:27.588Z,-2.89
2019-02-23T03:44:37.381Z,-2.93
2019-02-23T03:45:46.832Z,-2.94
2019-02-23T03:46:56.770Z,-2.99
2019-02-23T03:48:06.789Z,-3.01
2019-02-23T03:49:16.780Z,-2.94
2019-02-23T03:50:26.463Z,-2.94
2019-02-23T03:51:36.405Z,-3.01
2019-02-23T03:52:46.107Z,-2.93
2019-02-23T03:53:56.043Z,-2.91
2019-02-23T03:55:05.729Z,-2.98
2019-02-23T03:56:15.673Z,-3.01
2019-02-23T03:57:25.628Z,-2.87
2019-02-23T03:58:35.320Z,-2.98
2019-02-23T03:59:45.073Z,-2.98
2019-02-23T04:00:54.769Z,-2.93
2019-02-23T04:02:04.207Z,-3.01
2019-02-23T04:03:14.164Z,-2.98
2019-02-23T04:04:23.861Z,-2.99
2019-02-23T04:05:33.558Z,-2.94
2019-02-23T04:06:43.482Z,-2.9
2019-02-23T04:07:53.423Z,-2.86
2019-02-23T04:09:05.347Z,-2.84
2019-02-23T04:10:15.052Z,-2.78
2019-02-23T04:11:24.739Z,-2.89
2019-02-23T04:12:34.428Z,-2.83
2019-02-23T04:13:44.357Z,-2.86
2019-02-23T04:14:54.065Z,-2.76
2019-02-23T04:16:04.028Z,-2.86
2019-02-23T04:17:13.964Z,-2.8
2019-02-23T04:18:23.434Z,-2.81
2019-02-23T04:19:33.130Z,-2.93
2019-02-23T04:20:43.079Z,-2.89
2019-02-23T04:21:53.020Z,-2.94
2019-02-23T04:23:02.951Z,-2.93
2019-02-23T04:24:12.899Z,-2.96
2019-02-23T04:25:22.585Z,-2.94
2019-02-23T04:26:32.535Z,-2.9
2019-02-23T04:27:42.277Z,-2.98
2019-02-23T04:28:51.978Z,-2.94
2019-02-23T04:30:02.014Z,-2.93
2019-02-23T04:31:11.975Z,-2.91
2019-02-23T04:32:21.932Z,-2.93
2019-02-23T04:33:31.868Z,-2.99
2019-02-23T04:34:41.538Z,-2.93
2019-02-23T04:35:51.533Z,-3.04
2019-02-23T04:37:01.501Z,-3.01
2019-02-23T04:38:11.440Z,-3.01
2019-02-23T04:39:21.118Z,-3.02
2019-02-23T04:40:31.053Z,-2.94
2019-02-23T04:41:40.744Z,-2.96
2019-02-23T04:42:50.695Z,-2.99
2019-02-23T04:44:00.637Z,-3.01
2019-02-23T04:45:10.564Z,-3.01
2019-02-23T04:46:20.256Z,-2.98
2019-02-23T04:47:30.197Z,-3.02
2019-02-23T04:48:39.906Z,-2.9
2019-02-23T04:49:49.837Z,-2.94
2019-02-23T04:50:59.770Z,-2.94
2019-02-23T04:52:21.246Z,-2.93
2019-02-23T04:53:30.935Z,-2.99
2019-02-23T04:54:40.364Z,-2.99
2019-02-23T04:55:50.292Z,-2.99
2019-02-23T04:57:00.238Z,-2.99
2019-02-23T04:58:09.921Z,-3.01
2019-02-23T04:59:19.868Z,-3.01
2019-02-23T05:00:29.579Z,-3.05
2019-02-23T05:01:39.263Z,-2.96
2019-02-23T05:02:49.196Z,-2.98
2019-02-23T05:03:59.152Z,-3.02
2019-02-23T05:05:09.081Z,-2.94
2019-02-23T05:06:19.017Z,-3.07
2019-02-23T05:07:28.966Z,-3.08
2019-02-23T05:08:38.638Z,-2.99
2019-02-23T05:09:48.583Z,-2.99
2019-02-23T05:10:58.360Z,-3.11
2019-02-23T05:12:07.833Z,-3.08
2019-02-23T05:13:17.525Z,-3.09
2019-02-23T05:14:27.223Z,-3.08
2019-02-23T05:15:36.676Z,-3.23
2019-02-23T05:16:46.133Z,-3.15
2019-02-23T05:17:58.026Z,-3.17
2019-02-23T05:19:07.980Z,-3.11
2019-02-23T05:20:17.444Z,-3.17
2019-02-23T05:21:31.562Z,-3.17
2019-02-23T05:22:41.505Z,-3.22
2019-02-23T05:23:50.974Z,-3.23
2019-02-23T05:25:00.911Z,-3.17
2019-02-23T05:26:10.597Z,-3.15
2019-02-23T05:27:20.521Z,-3.2
2019-02-23T05:28:29.958Z,-3.2
2019-02-23T05:29:39.894Z,-3.23
2019-02-23T05:30:49.842Z,-3.23
2019-02-23T05:31:59.777Z,-3.23
2019-02-23T05:33:09.492Z,-3.29
2019-02-23T05:34:19.430Z,-3.38
2019-02-23T05:35:29.122Z,-3.36
2019-02-23T05:36:39.072Z,-3.38
2019-02-23T05:37:49.015Z,-3.36
2019-02-23T05:38:59.056Z,-3.36
2019-02-23T05:40:08.738Z,-3.36
2019-02-23T05:41:18.684Z,-3.37
2019-02-23T05:42:28.628Z,-3.38
2019-02-23T05:43:38.315Z,-3.36
2019-02-23T05:44:48.254Z,-3.36
2019-02-23T05:45:58.192Z,-3.32
2019-02-23T05:47:08.151Z,-3.47
2019-02-23T05:48:17.855Z,-3.43
2019-02-23T05:49:27.562Z,-3.36
2019-02-23T05:50:37.003Z,-3.3
2019-02-23T05:51:46.951Z,-3.36
2019-02-23T05:52:56.889Z,-3.47
2019-02-23T05:54:06.851Z,-3.37
2019-02-23T05:55:16.288Z,-3.36
2019-02-23T05:56:26.251Z,-3.37
2019-02-23T05:57:35.962Z,-3.36
2019-02-23T05:58:45.920Z,-3.38
2019-02-23T05:59:55.856Z,-3.38
2019-02-23T06:01:05.797Z,-3.3
2019-02-23T06:02:15.501Z,-3.41
2019-02-23T06:03:25.202Z,-3.33
2019-02-23T06:04:34.631Z,-3.36
2019-02-23T06:05:44.582Z,-3.37
2019-02-23T06:06:54.506Z,-3.37
2019-02-23T06:08:04.178Z,-3.36
2019-02-23T06:09:13.866Z,-3.36
2019-02-23T06:10:23.806Z,-3.27
2019-02-23T06:11:33.782Z,-3.36
2019-02-23T06:12:43.469Z,-3.32
2019-02-23T06:13:53.220Z,-3.41
2019-02-23T06:15:03.148Z,-3.46
2019-02-23T06:16:12.586Z,-3.53
2019-02-23T06:17:22.534Z,-3.47
2019-02-23T06:18:31.970Z,-3.55
2019-02-23T06:19:41.914Z,-3.51
2019-02-23T06:20:51.841Z,-3.61
2019-02-23T06:22:01.552Z,-3.53
2019-02-23T06:23:11.284Z,-3.65
2019-02-23T06:24:20.976Z,-3.56
2019-02-23T06:25:30.745Z,-3.58
2019-02-23T06:26:40.709Z,-3.59
2019-02-23T06:27:50.642Z,-3.55
2019-02-23T06:29:00.596Z,-3.56
2019-02-23T06:30:10.527Z,-3.59
2019-02-23T06:31:23.731Z,-3.56
2019-02-23T06:32:33.672Z,-3.59
2019-02-23T06:33:43.608Z,-3.62
2019-02-23T06:34:53.066Z,-3.55
2019-02-23T06:36:02.750Z,-3.56
2019-02-23T06:37:12.700Z,-3.56
2019-02-23T06:38:22.628Z,-3.53
2019-02-23T06:39:32.302Z,-3.5
2019-02-23T06:40:41.756Z,-3.43
2019-02-23T06:41:51.705Z,-3.53
2019-02-23T06:43:02.776Z,-3.41
2019-02-23T06:44:12.712Z,-3.41
2019-02-23T06:45:22.670Z,-3.4
2019-02-23T06:46:32.436Z,-3.33
2019-02-23T06:47:41.691Z,-3.3
2019-02-23T06:48:51.380Z,-3.4
2019-02-23T06:50:00.569Z,-3.33
2019-02-23T06:51:10.256Z,-3.41
2019-02-23T06:52:20.231Z,-3.36
2019-02-23T06:53:30.191Z,-3.36
2019-02-23T06:54:40.127Z,-3.4
2019-02-23T06:55:50.075Z,-3.41
2019-02-23T06:57:00.024Z,-3.38
2019-02-23T06:58:09.969Z,-3.4
2019-02-23T06:59:19.636Z,-3.32
2019-02-23T07:00:29.585Z,-3.33
2019-02-23T07:01:39.269Z,-3.32
2019-02-23T07:02:49.206Z,-3.3
2019-02-23T07:03:59.130Z,-3.4
2019-02-23T07:05:08.585Z,-3.41
2019-02-23T07:06:18.049Z,-3.41
2019-02-23T07:07:28.019Z,-3.32
2019-02-23T07:08:37.999Z,-3.38
2019-02-23T07:09:48.027Z,-3.37
2019-02-23T07:10:57.710Z,-3.37
2019-02-23T07:12:07.734Z,-3.33
2019-02-23T07:13:17.675Z,-3.37
2019-02-23T07:14:27.619Z,-3.22
2019-02-23T07:15:37.308Z,-3.2
2019-02-23T07:16:47.233Z,-3.17
2019-02-23T07:17:56.910Z,-3.02
2019-02-23T07:19:06.846Z,-3.11
2019-02-23T07:20:16.538Z,-3.02
2019-02-23T07:21:26.222Z,-3.04
2019-02-23T07:22:38.533Z,-2.99
2019-02-23T07:23:48.482Z,-2.99
2019-02-23T07:24:58.160Z,-3.01
2019-02-23T07:26:07.926Z,-3.02
2019-02-23T07:27:17.849Z,-2.96
2019-02-23T07:28:27.523Z,-2.96
2019-02-23T07:29:37.209Z,-2.93
2019-02-23T07:30:47.164Z,-2.96
2019-02-23T07:31:56.603Z,-2.89
2019-02-23T07:33:06.288Z,-2.83
2019-02-23T07:34:16.230Z,-2.81
2019-02-23T07:35:26.194Z,-2.75
2019-02-23T07:36:36.143Z,-2.75
2019-02-23T07:37:46.075Z,-2.69
2019-02-23T07:38:55.742Z,-2.63
2019-02-23T07:40:05.685Z,-2.57
2019-02-23T07:41:15.628Z,-2.48
2019-02-23T07:42:25.575Z,-2.45
2019-02-23T07:43:35.525Z,-2.42
2019-02-23T07:44:45.493Z,-2.47
2019-02-23T07:45:55.555Z,-2.37
2019-02-23T07:47:05.011Z,-2.32
2019-02-23T07:48:14.961Z,-2.32
2019-02-23T07:49:24.643Z,-2.28
2019-02-23T07:50:34.085Z,-2.28
2019-02-23T07:51:44.037Z,-2.26
2019-02-23T07:52:53.740Z,-2.17
2019-02-23T07:54:03.691Z,-2.18
2019-02-23T07:55:13.379Z,-2.08
2019-02-23T07:56:23.321Z,-2.07
2019-02-23T07:57:33.425Z,-2.02
2019-02-23T07:58:43.122Z,-2.1
2019-02-23T07:59:53.258Z,-1.97
2019-02-23T08:01:03.196Z,-2.08
2019-02-23T08:02:13.133Z,-1.97
2019-02-23T08:03:22.820Z,-1.99
2019-02-23T08:04:32.515Z,-1.97
2019-02-23T08:05:42.485Z,-2.04
2019-02-23T08:06:52.190Z,-1.94
2019-02-23T08:08:02.149Z,-1.94
2019-02-23T08:09:12.082Z,-1.97
2019-02-23T08:10:22.033Z,-1.9
2019-02-23T08:11:31.727Z,-1.92
2019-02-23T08:12:41.666Z,-1.87
2019-02-23T08:13:51.743Z,-1.86
2019-02-23T08:15:01.672Z,-1.71
2019-02-23T08:16:11.384Z,-1.75
2019-02-23T08:17:21.333Z,-1.69
2019-02-23T08:18:31.283Z,-1.69
2019-02-23T08:19:41.010Z,-1.69
2019-02-23T08:20:50.959Z,-1.57
2019-02-23T08:22:00.664Z,-1.54
2019-02-23T08:23:10.611Z,-1.56
2019-02-23T08:24:20.311Z,-1.36
2019-02-23T08:25:30.315Z,-1.32
2019-02-23T08:26:40.071Z,-1.19
2019-02-23T08:27:50.011Z,-0.89
2019-02-23T08:28:59.469Z,-0.6
2019-02-23T08:30:09.265Z,-0.41
2019-02-23T08:31:19.216Z,-0.17
2019-02-23T08:32:29.253Z,0.09
2019-02-23T08:33:39.203Z,0.12
2019-02-23T08:34:49.165Z,0.31
2019-02-23T08:35:59.110Z,0.56
2019-02-23T08:37:09.043Z,0.63
2019-02-23T08:38:18.727Z,0.84
2019-02-23T08:39:28.412Z,0.88
2019-02-23T08:40:38.097Z,0.82
2019-02-23T08:41:48.180Z,1.06
2019-02-23T08:42:58.125Z,1.14
2019-02-23T08:44:07.819Z,1.22
2019-02-23T08:45:17.290Z,1.21
2019-02-23T08:46:27.017Z,1.38
2019-02-23T08:47:36.961Z,1.46
2019-02-23T08:48:47.069Z,1.64
2019-02-23T08:49:57.031Z,1.85
2019-02-23T08:51:06.782Z,2.18
2019-02-23T08:52:16.739Z,2.32
2019-02-23T08:53:26.687Z,2.28
2019-02-23T08:54:36.623Z,2.01
2019-02-23T08:55:46.557Z,2.05
2019-02-23T08:56:57.819Z,1.95
2019-02-23T08:58:07.783Z,2.26
2019-02-23T08:59:17.724Z,2.4
2019-02-23T09:00:27.684Z,2.69
2019-02-23T09:01:37.640Z,2.83
2019-02-23T09:02:47.350Z,2.94
2019-02-23T09:03:57.039Z,3.11
2019-02-23T09:05:06.487Z,3.5
2019-02-23T09:06:16.453Z,3.5
2019-02-23T09:07:26.150Z,3.48
2019-02-23T09:08:36.097Z,3.53
2019-02-23T09:09:45.823Z,3.78
2019-02-23T09:10:55.759Z,3.96
2019-02-23T09:12:04.924Z,4.3
2019-02-23T09:13:14.877Z,4.49
2019-02-23T09:14:24.589Z,4.49
2019-02-23T09:15:34.275Z,4.39
2019-02-23T09:16:44.217Z,4.34
2019-02-23T09:17:53.931Z,4.18
2019-02-23T09:19:03.917Z,4.13
2019-02-23T09:20:13.893Z,4.2
2019-02-23T09:21:34.476Z,4.5
2019-02-23T09:22:44.291Z,4.7
2019-02-23T09:24:04.968Z,4.86
2019-02-23T09:25:14.935Z,4.82
2019-02-23T09:26:24.652Z,4.71
2019-02-23T09:27:34.351Z,4.45
2019-02-23T09:28:44.500Z,4.38
2019-02-23T09:29:54.435Z,4.06
2019-02-23T09:31:06.079Z,3.96
2019-02-23T09:32:16.039Z,4.24
2019-02-23T09:33:26.077Z,4.32
2019-02-23T09:34:36.027Z,4.28
2019-02-23T09:35:45.968Z,4.38
2019-02-23T09:36:55.685Z,4.4
2019-02-23T09:38:05.718Z,4.68
2019-02-23T09:39:15.674Z,4.71
2019-02-23T09:40:25.401Z,4.83
2019-02-23T09:41:35.102Z,4.98
2019-02-23T09:42:45.055Z,4.97
2019-02-23T09:43:55.078Z,4.92
2019-02-23T09:45:05.088Z,5.01
2019-02-23T09:46:14.780Z,5.18
2019-02-23T09:47:24.476Z,5.07
2019-02-23T09:48:34.190Z,4.95
2019-02-23T09:49:44.137Z,5.07
2019-02-23T09:50:54.117Z,4.86
2019-02-23T09:52:04.062Z,4.97
2019-02-23T09:53:16.434Z,5.05
2019-02-23T09:54:26.390Z,5.02
2019-02-23T09:55:38.363Z,5.04
2019-02-23T09:56:48.324Z,4.92
2019-02-23T09:57:58.280Z,5
2019-02-23T09:59:07.971Z,4.98
2019-02-23T10:00:17.930Z,5.19
2019-02-23T10:01:27.639Z,5.25
2019-02-23T10:02:37.340Z,5.51
2019-02-23T10:03:47.263Z,5.72
2019-02-23T10:04:57.202Z,5.8
2019-02-23T10:06:07.161Z,5.87
2019-02-23T10:07:16.876Z,5.84
2019-02-23T10:08:26.575Z,5.67
2019-02-23T10:09:36.536Z,5.43
2019-02-23T10:10:46.510Z,5.25
2019-02-23T10:11:56.472Z,5.34
2019-02-23T10:13:06.456Z,5.16
2019-02-23T10:14:16.443Z,5.05
2019-02-23T10:15:26.153Z,5.13
2019-02-23T10:16:35.925Z,5.12
2019-02-23T10:17:45.375Z,5.13
2019-02-23T10:18:55.076Z,5.29
2019-02-23T10:20:05.101Z,5.47
2019-02-23T10:21:15.072Z,5.55
2019-02-23T10:22:24.773Z,5.7
2019-02-23T10:23:34.712Z,5.8
2019-02-23T10:24:44.711Z,5.97
2019-02-23T10:25:54.427Z,6.19
2019-02-23T10:27:04.397Z,5.84
2019-02-23T10:28:14.336Z,5.79
2019-02-23T10:29:24.071Z,5.64
2019-02-23T10:30:33.522Z,5.4
2019-02-23T10:31:43.301Z,5.4
2019-02-23T10:32:53.001Z,5.18
2019-02-23T10:34:02.952Z,5.23
2019-02-23T10:35:12.943Z,5.34
2019-02-23T10:36:22.875Z,5.43
2019-02-23T10:37:32.585Z,5.58
2019-02-23T10:38:42.523Z,5.72
2019-02-23T10:39:52.231Z,5.79
2019-02-23T10:41:04.319Z,5.84
2019-02-23T10:42:14.023Z,6.05
2019-02-23T10:43:24.017Z,6.29
2019-02-23T10:44:33.987Z,6.31
2019-02-23T10:45:43.936Z,6.15
2019-02-23T10:46:53.896Z,6.01
2019-02-23T10:48:03.590Z,6.15
2019-02-23T10:49:13.556Z,5.92
2019-02-23T10:50:23.517Z,6.15
2019-02-23T10:51:33.463Z,6.29
2019-02-23T10:52:43.426Z,6.38
2019-02-23T10:53:53.407Z,6.32
2019-02-23T10:55:03.093Z,6.6
2019-02-23T10:56:13.045Z,6.59
2019-02-23T10:57:22.503Z,6.96
2019-02-23T10:58:31.947Z,7.39
2019-02-23T10:59:41.662Z,7.4
2019-02-23T11:00:51.618Z,7.26
2019-02-23T11:02:01.561Z,7.33
2019-02-23T11:03:11.547Z,7.37
2019-02-23T11:04:21.501Z,7.56
2019-02-23T11:05:31.294Z,7.62
2019-02-23T11:06:43.345Z,7.64
2019-02-23T11:07:53.070Z,7.9
2019-02-23T11:09:03.016Z,8.06
2019-02-23T11:10:13.209Z,8.28
2019-02-23T11:11:23.173Z,8.34
2019-02-23T11:12:33.131Z,8.46
2019-02-23T11:13:43.082Z,8.57
2019-02-23T11:14:53.030Z,8.87
2019-02-23T11:16:03.001Z,9.26
2019-02-23T11:17:12.958Z,9.49
2019-02-23T11:18:22.917Z,9.7
2019-02-23T11:19:32.871Z,9.39
2019-02-23T11:20:42.573Z,8.52
2019-02-23T11:21:52.517Z,8.46
2019-02-23T11:23:02.481Z,8.66
2019-02-23T11:24:11.975Z,8.9
2019-02-23T11:25:23.687Z,8.93
2019-02-23T11:26:33.725Z,9.09
2019-02-23T11:27:43.678Z,9.21
2019-02-23T11:28:53.636Z,9.45
2019-02-23T11:30:03.347Z,9.26
2019-02-23T11:31:12.808Z,8.92
2019-02-23T11:32:22.780Z,8.59
2019-02-23T11:33:32.732Z,8.36
2019-02-23T11:34:42.697Z,8.53
2019-02-23T11:35:52.656Z,8.71
2019-02-23T11:37:02.370Z,8.97
2019-02-23T11:38:12.332Z,9.29
2019-02-23T11:39:22.282Z,9.42
2019-02-23T11:40:32.006Z,9.34
2019-02-23T11:41:41.989Z,9.44
2019-02-23T11:42:51.971Z,9.48
2019-02-23T11:44:01.727Z,9.55
2019-02-23T11:45:11.191Z,9.21
2019-02-23T11:46:21.419Z,9.18
2019-02-23T11:47:31.122Z,9.49
2019-02-23T11:48:40.830Z,9.37
2019-02-23T11:49:50.795Z,9.63
2019-02-23T11:51:00.500Z,9.56
2019-02-23T11:52:10.234Z,9.54
2019-02-23T11:53:19.941Z,9.36
2019-02-23T11:54:29.896Z,9.29
2019-02-23T11:55:39.612Z,9.12
2019-02-23T11:56:49.580Z,8.99
2019-02-23T11:57:59.543Z,8.9
2019-02-23T11:59:09.484Z,8.78
2019-02-23T12:00:19.217Z,9.03
2019-02-23T12:01:29.188Z,8.97
2019-02-23T12:02:38.919Z,8.84
2019-02-23T12:03:59.667Z,9.09
2019-02-23T12:05:09.637Z,9.39
2019-02-23T12:06:19.694Z,9.24
2019-02-23T12:07:29.667Z,9.56
2019-02-23T12:08:39.852Z,9.73
2019-02-23T12:09:49.330Z,9.59
2019-02-23T12:10:59.362Z,9.34
2019-02-23T12:12:09.338Z,9.09
2019-02-23T12:13:19.072Z,8.96
2019-02-23T12:14:30.747Z,9.18
2019-02-23T12:15:40.675Z,9.36
2019-02-23T12:16:50.634Z,9.47
2019-02-23T12:18:00.359Z,9.26
2019-02-23T12:19:10.582Z,9.15
2019-02-23T12:20:20.544Z,8.99
2019-02-23T12:21:30.248Z,8.96
2019-02-23T12:22:39.992Z,8.9
2019-02-23T12:23:49.710Z,8.86
2019-02-23T12:24:59.664Z,8.69
2019-02-23T12:26:09.624Z,8.49
2019-02-23T12:27:19.336Z,8.38
2019-02-23T12:28:29.304Z,8.42
2019-02-23T12:29:39.266Z,8.68
2019-02-23T12:30:49.234Z,8.71
2019-02-23T12:31:58.947Z,8.81
2019-02-23T12:33:08.974Z,8.86
2019-02-23T12:34:18.703Z,9.05
2019-02-23T12:35:28.682Z,9.29
2019-02-23T12:36:38.456Z,9.31
2019-02-23T12:37:48.421Z,9.36
2019-02-23T12:38:57.867Z,9.36
2019-02-23T12:40:07.072Z,9.15
2019-02-23T12:41:17.035Z,8.87
2019-02-23T12:42:27.705Z,8.75
2019-02-23T12:43:37.749Z,8.68
2019-02-23T12:44:47.470Z,8.64
2019-02-23T12:45:57.422Z,8.92
2019-02-23T12:47:07.107Z,9.13
2019-02-23T12:48:16.819Z,9.33
2019-02-23T12:49:26.779Z,9.22
2019-02-23T12:50:38.331Z,9.24
2019-02-23T12:51:48.027Z,9.36
2019-02-23T12:52:59.723Z,9.27
2019-02-23T12:54:19.008Z,9.47
2019-02-23T12:55:28.984Z,9.26
2019-02-23T12:56:39.035Z,9.45
2019-02-23T12:57:49.037Z,9.34
2019-02-23T12:58:58.742Z,9.49
2019-02-23T13:00:08.188Z,9.73
2019-02-23T13:01:17.902Z,9.74
2019-02-23T13:02:27.856Z,9.74
2019-02-23T13:03:37.364Z,9.73
2019-02-23T13:04:47.314Z,9.84
2019-02-23T13:05:57.056Z,9.87
2019-02-23T13:07:07.034Z,9.55
2019-02-23T13:08:17.011Z,9.47
2019-02-23T13:09:26.989Z,9.26
2019-02-23T13:10:36.980Z,9.33
2019-02-23T13:11:46.692Z,9.37
2019-02-23T13:12:56.395Z,9.47
2019-02-23T13:14:06.386Z,9.76
2019-02-23T13:15:16.078Z,9.84
2019-02-23T13:16:25.771Z,9.81
2019-02-23T13:17:35.730Z,9.73
2019-02-23T13:18:45.688Z,9.54
2019-02-23T13:19:55.408Z,9.27
2019-02-23T13:21:05.118Z,9.36
2019-02-23T13:22:15.091Z,9.08
2019-02-23T13:23:25.061Z,8.99
2019-02-23T13:24:35.023Z,9.12
2019-02-23T13:25:44.724Z,9.05
2019-02-23T13:26:54.688Z,9.22
2019-02-23T13:28:04.641Z,9.22
2019-02-23T13:29:14.586Z,9.27
2019-02-23T13:30:24.280Z,9.31
2019-02-23T13:31:33.988Z,9.27
2019-02-23T13:32:43.690Z,9.3
2019-02-23T13:33:53.652Z,9.26
2019-02-23T13:35:05.113Z,9.02
2019-02-23T13:36:15.085Z,9.02
2019-02-23T13:37:24.795Z,8.97
2019-02-23T13:38:34.746Z,8.63
2019-02-23T13:39:44.762Z,8.57
2019-02-23T13:40:54.470Z,8.69
2019-02-23T13:42:05.685Z,8.63
2019-02-23T13:43:15.784Z,8.64
2019-02-23T13:44:25.752Z,8.56
2019-02-23T13:45:35.712Z,8.36
2019-02-23T13:46:45.433Z,8.36
2019-02-23T13:47:55.383Z,8.32
2019-02-23T13:49:04.565Z,8.18
2019-02-23T13:50:14.525Z,8.35
2019-02-23T13:51:26.429Z,8.36
2019-02-23T13:52:36.122Z,8.11
2019-02-23T13:53:46.073Z,8.18
2019-02-23T13:54:56.008Z,8.36
2019-02-23T13:56:05.703Z,8.44
2019-02-23T13:57:15.670Z,8.71
2019-02-23T13:58:25.639Z,8.78
2019-02-23T13:59:35.601Z,8.77
2019-02-23T14:00:45.329Z,8.82
2019-02-23T14:01:55.300Z,8.71
2019-02-23T14:03:05.253Z,8.6
2019-02-23T14:04:14.949Z,8.5
2019-02-23T14:05:24.937Z,8.36
2019-02-23T14:06:34.879Z,8.46
2019-02-23T14:07:44.312Z,8.68
2019-02-23T14:08:53.775Z,8.92
2019-02-23T14:10:03.741Z,9.05
2019-02-23T14:11:13.682Z,9.18
2019-02-23T14:12:23.386Z,9.27
2019-02-23T14:13:33.152Z,9.4
2019-02-23T14:14:43.109Z,9.45
2019-02-23T14:15:52.555Z,9.24
2019-02-23T14:17:02.265Z,9.13
2019-02-23T14:18:12.788Z,9.13
2019-02-23T14:19:22.753Z,9.24
2019-02-23T14:20:32.451Z,9.37
2019-02-23T14:21:42.397Z,9.54
2019-02-23T14:22:52.337Z,9.64
2019-02-23T14:24:03.293Z,9.64
2019-02-23T14:25:13.335Z,9.59
2019-02-23T14:26:23.326Z,9.62
2019-02-23T14:27:32.773Z,9.67
2019-02-23T14:28:42.560Z,9.66
2019-02-23T14:29:52.273Z,9.48
2019-02-23T14:31:01.725Z,9.42
2019-02-23T14:32:11.694Z,9.4
2019-02-23T14:33:21.665Z,9.24
2019-02-23T14:34:31.613Z,9.09
2019-02-23T14:35:41.564Z,8.96
2019-02-23T14:36:51.533Z,9.18
2019-02-23T14:38:01.493Z,9.27
2019-02-23T14:39:13.009Z,9.37
2019-02-23T14:40:22.683Z,9.39
2019-02-23T14:41:32.679Z,9.39
2019-02-23T14:42:42.771Z,9.39
2019-02-23T14:43:52.504Z,9.11
2019-02-23T14:45:03.559Z,8.84
2019-02-23T14:46:13.534Z,8.97
2019-02-23T14:47:26.179Z,9.21
2019-02-23T14:48:35.931Z,9.33
2019-02-23T14:49:46.013Z,9.24
2019-02-23T14:50:57.507Z,9.22
2019-02-23T14:52:07.553Z,9.24
2019-02-23T14:53:20.107Z,9.16
2019-02-23T14:54:30.068Z,9.08
2019-02-23T14:55:42.369Z,9.05
2019-02-23T14:56:51.893Z,8.87
2019-02-23T14:58:01.935Z,8.78
2019-02-23T14:59:11.966Z,8.57
2019-02-23T15:00:21.748Z,8.52
2019-02-23T15:01:31.525Z,8.45
2019-02-23T15:02:41.513Z,8.32
2019-02-23T15:03:51.457Z,8.2
2019-02-23T15:05:01.430Z,8.16
2019-02-23T15:06:11.386Z,8.06
2019-02-23T15:07:21.344Z,7.84
2019-02-23T15:08:31.297Z,7.78
2019-02-23T15:09:41.258Z,7.77
2019-02-23T15:10:50.542Z,7.77
2019-02-23T15:12:00.256Z,7.77
2019-02-23T15:13:09.958Z,7.77
2019-02-23T15:14:19.913Z,7.81
2019-02-23T15:15:29.951Z,7.85
2019-02-23T15:16:39.906Z,7.85